sensor_id;sensor_type;location;lat;lon;timestamp;P1;durP1;ratioP1;P2;durP2;ratioP2
64094;SDS011;50353;51.420;5.682;2023-06-10T00:02:08;14.80;;;6.28;;
64094;SDS011;50353;51.420;5.682;2023-06-10T00:04:33;11.60;;;7.00;;
64094;SDS011;50353;51.420;5.682;2023-06-10T00:07:01;11.02;;;6.82;;
64094;SDS011;50353;51.420;5.682;2023-06-10T00:09:36;11.02;;;7.03;;
64094;SDS011;50353;51.420;5.682;2023-06-10T00:12:03;9.98;;;6.70;;
64094;SDS011;50353;51.420;5.682;2023-06-10T00:14:30;9.68;;;6.55;;
64094;SDS011;50353;51.420;5.682;2023-06-10T00:16:55;13.80;;;7.83;;
64094;SDS011;50353;51.420;5.682;2023-06-10T00:19:22;9.50;;;6.68;;
64094;SDS011;50353;51.420;5.682;2023-06-10T00:21:50;10.30;;;7.45;;
64094;SDS011;50353;51.420;5.682;2023-06-10T00:24:17;20.35;;;7.70;;
64094;SDS011;50353;51.420;5.682;2023-06-10T00:26:43;11.40;;;7.20;;
64094;SDS011;50353;51.420;5.682;2023-06-10T00:29:09;11.83;;;7.67;;
64094;SDS011;50353;51.420;5.682;2023-06-10T00:31:34;14.63;;;7.60;;
64094;SDS011;50353;51.420;5.682;2023-06-10T00:34:01;12.25;;;7.35;;
64094;SDS011;50353;51.420;5.682;2023-06-10T00:38:52;13.23;;;7.67;;
64094;SDS011;50353;51.420;5.682;2023-06-10T00:41:17;13.30;;;7.00;;
64094;SDS011;50353;51.420;5.682;2023-06-10T00:43:43;12.33;;;7.70;;
64094;SDS011;50353;51.420;5.682;2023-06-10T00:46:09;14.77;;;8.27;;
64094;SDS011;50353;51.420;5.682;2023-06-10T00:48:36;13.57;;;8.32;;
64094;SDS011;50353;51.420;5.682;2023-06-10T00:51:03;12.43;;;7.57;;
64094;SDS011;50353;51.420;5.682;2023-06-10T00:53:30;13.50;;;7.32;;
64094;SDS011;50353;51.420;5.682;2023-06-10T00:55:57;12.15;;;7.40;;
64094;SDS011;50353;51.420;5.682;2023-06-10T00:58:23;13.70;;;7.83;;
64094;SDS011;50353;51.420;5.682;2023-06-10T01:00:50;11.48;;;7.63;;
64094;SDS011;50353;51.420;5.682;2023-06-10T01:03:16;11.63;;;7.65;;
64094;SDS011;50353;51.420;5.682;2023-06-10T01:05:42;14.17;;;7.47;;
64094;SDS011;50353;51.420;5.682;2023-06-10T01:10:49;11.23;;;7.45;;
64094;SDS011;50353;51.420;5.682;2023-06-10T01:13:18;10.50;;;8.00;;
64094;SDS011;50353;51.420;5.682;2023-06-10T01:15:48;12.32;;;7.43;;
64094;SDS011;50353;51.420;5.682;2023-06-10T01:18:15;11.85;;;7.82;;
64094;SDS011;50353;51.420;5.682;2023-06-10T01:20:42;16.05;;;7.93;;
64094;SDS011;50353;51.420;5.682;2023-06-10T01:23:08;10.65;;;7.55;;
64094;SDS011;50353;51.420;5.682;2023-06-10T01:25:37;15.25;;;8.05;;
64094;SDS011;50353;51.420;5.682;2023-06-10T01:28:19;11.20;;;7.85;;
64094;SDS011;50353;51.420;5.682;2023-06-10T01:31:06;13.15;;;7.55;;
64094;SDS011;50353;51.420;5.682;2023-06-10T01:36:06;15.10;;;8.18;;
64094;SDS011;50353;51.420;5.682;2023-06-10T01:38:32;12.87;;;8.20;;
64094;SDS011;50353;51.420;5.682;2023-06-10T01:41:01;13.70;;;8.32;;
64094;SDS011;50353;51.420;5.682;2023-06-10T01:43:28;14.50;;;7.80;;
64094;SDS011;50353;51.420;5.682;2023-06-10T01:45:57;16.60;;;7.85;;
64094;SDS011;50353;51.420;5.682;2023-06-10T01:48:22;15.83;;;8.20;;
64094;SDS011;50353;51.420;5.682;2023-06-10T01:50:47;18.57;;;8.47;;
64094;SDS011;50353;51.420;5.682;2023-06-10T01:53:13;11.13;;;8.03;;
64094;SDS011;50353;51.420;5.682;2023-06-10T01:55:38;12.07;;;7.93;;
64094;SDS011;50353;51.420;5.682;2023-06-10T01:58:03;14.13;;;8.73;;
64094;SDS011;50353;51.420;5.682;2023-06-10T02:00:28;12.60;;;8.20;;
64094;SDS011;50353;51.420;5.682;2023-06-10T02:02:54;10.47;;;8.03;;
64094;SDS011;50353;51.420;5.682;2023-06-10T02:05:19;15.00;;;8.67;;
64094;SDS011;50353;51.420;5.682;2023-06-10T02:07:44;11.83;;;8.60;;
64094;SDS011;50353;51.420;5.682;2023-06-10T02:10:10;12.30;;;8.93;;
64094;SDS011;50353;51.420;5.682;2023-06-10T02:12:35;11.77;;;7.97;;
64094;SDS011;50353;51.420;5.682;2023-06-10T02:15:00;11.10;;;8.40;;
64094;SDS011;50353;51.420;5.682;2023-06-10T02:17:26;10.60;;;8.40;;
64094;SDS011;50353;51.420;5.682;2023-06-10T02:19:51;11.57;;;8.63;;
64094;SDS011;50353;51.420;5.682;2023-06-10T02:22:24;13.60;;;8.93;;
64094;SDS011;50353;51.420;5.682;2023-06-10T02:24:49;13.25;;;8.35;;
64094;SDS011;50353;51.420;5.682;2023-06-10T02:27:15;13.07;;;8.57;;
64094;SDS011;50353;51.420;5.682;2023-06-10T02:29:41;13.55;;;8.32;;
64094;SDS011;50353;51.420;5.682;2023-06-10T02:32:07;13.00;;;8.90;;
64094;SDS011;50353;51.420;5.682;2023-06-10T02:34:32;10.27;;;8.88;;
64094;SDS011;50353;51.420;5.682;2023-06-10T02:36:58;11.37;;;8.23;;
64094;SDS011;50353;51.420;5.682;2023-06-10T02:39:24;13.80;;;8.90;;
64094;SDS011;50353;51.420;5.682;2023-06-10T02:41:49;12.53;;;8.87;;
64094;SDS011;50353;51.420;5.682;2023-06-10T02:44:14;19.10;;;9.83;;
64094;SDS011;50353;51.420;5.682;2023-06-10T02:46:39;16.23;;;10.33;;
64094;SDS011;50353;51.420;5.682;2023-06-10T02:49:05;16.60;;;9.70;;
64094;SDS011;50353;51.420;5.682;2023-06-10T02:51:30;11.80;;;9.20;;
64094;SDS011;50353;51.420;5.682;2023-06-10T02:53:55;14.13;;;9.70;;
64094;SDS011;50353;51.420;5.682;2023-06-10T02:56:20;13.30;;;9.80;;
64094;SDS011;50353;51.420;5.682;2023-06-10T02:58:46;14.13;;;9.67;;
64094;SDS011;50353;51.420;5.682;2023-06-10T03:01:13;13.15;;;10.10;;
64094;SDS011;50353;51.420;5.682;2023-06-10T03:03:38;16.83;;;9.90;;
64094;SDS011;50353;51.420;5.682;2023-06-10T03:06:07;14.95;;;9.95;;
64094;SDS011;50353;51.420;5.682;2023-06-10T03:08:33;16.88;;;10.07;;
64094;SDS011;50353;51.420;5.682;2023-06-10T03:10:58;14.80;;;9.53;;
64094;SDS011;50353;51.420;5.682;2023-06-10T03:13:24;15.07;;;10.20;;
64094;SDS011;50353;51.420;5.682;2023-06-10T03:15:49;14.83;;;10.13;;
64094;SDS011;50353;51.420;5.682;2023-06-10T03:18:15;15.63;;;10.60;;
64094;SDS011;50353;51.420;5.682;2023-06-10T03:20:40;12.60;;;10.10;;
64094;SDS011;50353;51.420;5.682;2023-06-10T03:23:05;18.07;;;10.80;;
64094;SDS011;50353;51.420;5.682;2023-06-10T03:25:34;16.52;;;10.57;;
64094;SDS011;50353;51.420;5.682;2023-06-10T03:27:59;14.80;;;11.07;;
64094;SDS011;50353;51.420;5.682;2023-06-10T03:30:25;16.93;;;11.17;;
64094;SDS011;50353;51.420;5.682;2023-06-10T03:32:51;15.57;;;10.43;;
64094;SDS011;50353;51.420;5.682;2023-06-10T03:35:17;19.10;;;12.03;;
64094;SDS011;50353;51.420;5.682;2023-06-10T03:37:42;16.23;;;10.53;;
64094;SDS011;50353;51.420;5.682;2023-06-10T03:40:08;17.17;;;11.50;;
64094;SDS011;50353;51.420;5.682;2023-06-10T03:42:34;22.77;;;12.50;;
64094;SDS011;50353;51.420;5.682;2023-06-10T03:44:59;19.00;;;12.02;;
64094;SDS011;50353;51.420;5.682;2023-06-10T03:47:25;20.20;;;12.00;;
64094;SDS011;50353;51.420;5.682;2023-06-10T03:49:50;14.73;;;10.77;;
64094;SDS011;50353;51.420;5.682;2023-06-10T03:52:15;18.03;;;11.37;;
64094;SDS011;50353;51.420;5.682;2023-06-10T03:57:07;16.20;;;10.70;;
64094;SDS011;50353;51.420;5.682;2023-06-10T03:59:32;14.67;;;10.90;;
64094;SDS011;50353;51.420;5.682;2023-06-10T04:01:58;16.63;;;11.97;;
64094;SDS011;50353;51.420;5.682;2023-06-10T04:04:23;19.43;;;12.60;;
64094;SDS011;50353;51.420;5.682;2023-06-10T04:06:48;15.60;;;12.50;;
64094;SDS011;50353;51.420;5.682;2023-06-10T04:09:14;18.53;;;12.80;;
64094;SDS011;50353;51.420;5.682;2023-06-10T04:11:41;15.95;;;12.48;;
64094;SDS011;50353;51.420;5.682;2023-06-10T04:14:06;19.57;;;12.60;;
64094;SDS011;50353;51.420;5.682;2023-06-10T04:16:32;18.83;;;13.40;;
64094;SDS011;50353;51.420;5.682;2023-06-10T04:18:58;18.47;;;12.47;;
64094;SDS011;50353;51.420;5.682;2023-06-10T04:21:24;20.45;;;11.65;;
64094;SDS011;50353;51.420;5.682;2023-06-10T04:23:49;19.10;;;12.93;;
64094;SDS011;50353;51.420;5.682;2023-06-10T04:26:15;20.00;;;13.23;;
64094;SDS011;50353;51.420;5.682;2023-06-10T04:28:40;16.93;;;12.30;;
64094;SDS011;50353;51.420;5.682;2023-06-10T04:31:08;17.65;;;12.85;;
64094;SDS011;50353;51.420;5.682;2023-06-10T04:33:33;17.87;;;13.07;;
64094;SDS011;50353;51.420;5.682;2023-06-10T04:35:58;17.33;;;12.20;;
64094;SDS011;50353;51.420;5.682;2023-06-10T04:38:24;19.67;;;13.17;;
64094;SDS011;50353;51.420;5.682;2023-06-10T04:40:49;15.70;;;12.20;;
64094;SDS011;50353;51.420;5.682;2023-06-10T04:43:14;17.07;;;13.17;;
64094;SDS011;50353;51.420;5.682;2023-06-10T04:45:40;18.20;;;13.85;;
64094;SDS011;50353;51.420;5.682;2023-06-10T04:48:09;17.63;;;12.77;;
64094;SDS011;50353;51.420;5.682;2023-06-10T04:50:35;18.08;;;12.95;;
64094;SDS011;50353;51.420;5.682;2023-06-10T04:53:01;18.80;;;13.30;;
64094;SDS011;50353;51.420;5.682;2023-06-10T04:55:26;19.97;;;12.73;;
64094;SDS011;50353;51.420;5.682;2023-06-10T04:57:52;16.90;;;12.40;;
64094;SDS011;50353;51.420;5.682;2023-06-10T05:00:17;19.80;;;12.50;;
64094;SDS011;50353;51.420;5.682;2023-06-10T05:02:43;19.80;;;13.80;;
64094;SDS011;50353;51.420;5.682;2023-06-10T05:05:08;19.87;;;12.83;;
64094;SDS011;50353;51.420;5.682;2023-06-10T05:07:33;19.10;;;11.83;;
64094;SDS011;50353;51.420;5.682;2023-06-10T05:09:58;22.80;;;12.73;;
64094;SDS011;50353;51.420;5.682;2023-06-10T05:12:24;19.93;;;12.70;;
64094;SDS011;50353;51.420;5.682;2023-06-10T05:14:49;18.43;;;12.40;;
64094;SDS011;50353;51.420;5.682;2023-06-10T05:17:14;20.60;;;13.67;;
64094;SDS011;50353;51.420;5.682;2023-06-10T05:19:40;17.13;;;13.40;;
64094;SDS011;50353;51.420;5.682;2023-06-10T05:22:06;19.60;;;13.23;;
64094;SDS011;50353;51.420;5.682;2023-06-10T05:24:31;15.97;;;12.87;;
64094;SDS011;50353;51.420;5.682;2023-06-10T05:26:57;18.90;;;12.30;;
64094;SDS011;50353;51.420;5.682;2023-06-10T05:29:22;16.30;;;13.10;;
64094;SDS011;50353;51.420;5.682;2023-06-10T05:31:48;18.43;;;13.27;;
64094;SDS011;50353;51.420;5.682;2023-06-10T05:34:13;20.00;;;13.57;;
64094;SDS011;50353;51.420;5.682;2023-06-10T05:36:38;18.00;;;13.30;;
64094;SDS011;50353;51.420;5.682;2023-06-10T05:39:03;17.67;;;13.00;;
64094;SDS011;50353;51.420;5.682;2023-06-10T05:41:29;18.83;;;12.40;;
64094;SDS011;50353;51.420;5.682;2023-06-10T05:43:54;16.57;;;12.67;;
64094;SDS011;50353;51.420;5.682;2023-06-10T05:46:20;21.30;;;12.50;;
64094;SDS011;50353;51.420;5.682;2023-06-10T05:48:45;18.80;;;13.20;;
64094;SDS011;50353;51.420;5.682;2023-06-10T05:51:10;34.90;;;23.80;;
64094;SDS011;50353;51.420;5.682;2023-06-10T05:53:36;23.20;;;14.70;;
64094;SDS011;50353;51.420;5.682;2023-06-10T05:56:01;22.00;;;13.43;;
64094;SDS011;50353;51.420;5.682;2023-06-10T05:58:26;19.00;;;13.13;;
64094;SDS011;50353;51.420;5.682;2023-06-10T06:00:51;18.07;;;12.80;;
64094;SDS011;50353;51.420;5.682;2023-06-10T06:03:17;17.87;;;11.77;;
64094;SDS011;50353;51.420;5.682;2023-06-10T06:05:42;17.13;;;11.73;;
64094;SDS011;50353;51.420;5.682;2023-06-10T06:08:07;22.80;;;13.90;;
64094;SDS011;50353;51.420;5.682;2023-06-10T06:10:33;20.67;;;12.93;;
64094;SDS011;50353;51.420;5.682;2023-06-10T06:12:59;17.88;;;13.27;;
64094;SDS011;50353;51.420;5.682;2023-06-10T06:15:25;21.50;;;13.23;;
64094;SDS011;50353;51.420;5.682;2023-06-10T06:17:50;21.47;;;13.03;;
64094;SDS011;50353;51.420;5.682;2023-06-10T06:20:22;16.58;;;12.45;;
64094;SDS011;50353;51.420;5.682;2023-06-10T06:22:48;19.10;;;13.40;;
64094;SDS011;50353;51.420;5.682;2023-06-10T06:25:13;21.17;;;13.30;;
64094;SDS011;50353;51.420;5.682;2023-06-10T06:27:38;40.40;;;28.40;;
64094;SDS011;50353;51.420;5.682;2023-06-10T06:30:04;22.07;;;13.07;;
64094;SDS011;50353;51.420;5.682;2023-06-10T06:32:30;19.05;;;12.65;;
64094;SDS011;50353;51.420;5.682;2023-06-10T06:34:55;18.37;;;11.80;;
64094;SDS011;50353;51.420;5.682;2023-06-10T06:37:21;20.67;;;11.63;;
64094;SDS011;50353;51.420;5.682;2023-06-10T06:42:13;23.07;;;12.20;;
64094;SDS011;50353;51.420;5.682;2023-06-10T06:44:38;20.63;;;12.10;;
64094;SDS011;50353;51.420;5.682;2023-06-10T06:47:03;15.33;;;11.30;;
64094;SDS011;50353;51.420;5.682;2023-06-10T06:49:29;15.33;;;10.90;;
64094;SDS011;50353;51.420;5.682;2023-06-10T06:51:54;19.00;;;11.90;;
64094;SDS011;50353;51.420;5.682;2023-06-10T06:54:19;19.10;;;11.67;;
64094;SDS011;50353;51.420;5.682;2023-06-10T06:56:45;15.87;;;11.67;;
64094;SDS011;50353;51.420;5.682;2023-06-10T06:59:10;16.87;;;10.53;;
64094;SDS011;50353;51.420;5.682;2023-06-10T07:01:36;17.47;;;11.57;;
64094;SDS011;50353;51.420;5.682;2023-06-10T07:04:01;15.83;;;11.47;;
64094;SDS011;50353;51.420;5.682;2023-06-10T07:06:26;15.07;;;11.40;;
64094;SDS011;50353;51.420;5.682;2023-06-10T07:08:51;24.60;;;11.37;;
64094;SDS011;50353;51.420;5.682;2023-06-10T07:11:17;19.77;;;13.07;;
64094;SDS011;50353;51.420;5.682;2023-06-10T07:13:42;17.70;;;10.90;;
64094;SDS011;50353;51.420;5.682;2023-06-10T07:16:08;22.10;;;10.77;;
64094;SDS011;50353;51.420;5.682;2023-06-10T07:18:33;21.13;;;10.63;;
64094;SDS011;50353;51.420;5.682;2023-06-10T07:20:58;16.27;;;10.30;;
64094;SDS011;50353;51.420;5.682;2023-06-10T07:23:23;21.10;;;10.57;;
64094;SDS011;50353;51.420;5.682;2023-06-10T07:25:49;15.70;;;9.70;;
64094;SDS011;50353;51.420;5.682;2023-06-10T07:28:15;21.17;;;9.67;;
64094;SDS011;50353;51.420;5.682;2023-06-10T07:30:40;22.20;;;9.83;;
64094;SDS011;50353;51.420;5.682;2023-06-10T07:33:05;19.33;;;9.97;;
64094;SDS011;50353;51.420;5.682;2023-06-10T07:35:32;20.35;;;8.95;;
64094;SDS011;50353;51.420;5.682;2023-06-10T07:37:58;16.53;;;9.13;;
64094;SDS011;50353;51.420;5.682;2023-06-10T07:40:23;55.33;;;41.87;;
64094;SDS011;50353;51.420;5.682;2023-06-10T07:42:49;20.43;;;9.30;;
64094;SDS011;50353;51.420;5.682;2023-06-10T07:45:14;14.07;;;8.50;;
64094;SDS011;50353;51.420;5.682;2023-06-10T07:47:39;17.30;;;8.70;;
64094;SDS011;50353;51.420;5.682;2023-06-10T07:50:05;19.63;;;8.90;;
64094;SDS011;50353;51.420;5.682;2023-06-10T07:52:30;18.87;;;9.67;;
64094;SDS011;50353;51.420;5.682;2023-06-10T07:54:56;18.50;;;8.93;;
64094;SDS011;50353;51.420;5.682;2023-06-10T07:57:21;16.47;;;8.27;;
64094;SDS011;50353;51.420;5.682;2023-06-10T07:59:46;13.77;;;8.30;;
64094;SDS011;50353;51.420;5.682;2023-06-10T08:02:12;14.47;;;8.50;;
64094;SDS011;50353;51.420;5.682;2023-06-10T08:04:37;18.50;;;7.87;;
64094;SDS011;50353;51.420;5.682;2023-06-10T08:07:02;11.50;;;7.73;;
64094;SDS011;50353;51.420;5.682;2023-06-10T08:09:28;15.97;;;9.00;;
64094;SDS011;50353;51.420;5.682;2023-06-10T08:11:53;19.73;;;8.67;;
64094;SDS011;50353;51.420;5.682;2023-06-10T08:14:20;12.95;;;8.15;;
64094;SDS011;50353;51.420;5.682;2023-06-10T08:16:45;13.80;;;7.70;;
64094;SDS011;50353;51.420;5.682;2023-06-10T08:19:11;15.00;;;7.57;;
64094;SDS011;50353;51.420;5.682;2023-06-10T08:21:36;16.07;;;8.10;;
64094;SDS011;50353;51.420;5.682;2023-06-10T08:24:04;12.98;;;7.68;;
64094;SDS011;50353;51.420;5.682;2023-06-10T08:26:30;9.32;;;6.80;;
64094;SDS011;50353;51.420;5.682;2023-06-10T08:28:55;11.07;;;6.90;;
64094;SDS011;50353;51.420;5.682;2023-06-10T08:31:21;13.33;;;7.57;;
64094;SDS011;50353;51.420;5.682;2023-06-10T08:33:46;16.80;;;7.43;;
64094;SDS011;50353;51.420;5.682;2023-06-10T08:36:12;17.87;;;7.40;;
64094;SDS011;50353;51.420;5.682;2023-06-10T08:38:37;15.20;;;7.50;;
64094;SDS011;50353;51.420;5.682;2023-06-10T08:41:03;16.50;;;7.57;;
64094;SDS011;50353;51.420;5.682;2023-06-10T08:43:48;13.52;;;7.28;;
64094;SDS011;50353;51.420;5.682;2023-06-10T08:46:24;18.08;;;7.90;;
64094;SDS011;50353;51.420;5.682;2023-06-10T08:48:51;17.60;;;7.70;;
64094;SDS011;50353;51.420;5.682;2023-06-10T08:51:20;17.35;;;7.53;;
64094;SDS011;50353;51.420;5.682;2023-06-10T08:53:50;15.10;;;6.78;;
64094;SDS011;50353;51.420;5.682;2023-06-10T08:56:23;11.52;;;7.15;;
64094;SDS011;50353;51.420;5.682;2023-06-10T08:58:50;15.50;;;7.20;;
64094;SDS011;50353;51.420;5.682;2023-06-10T09:03:43;15.90;;;7.25;;
64094;SDS011;50353;51.420;5.682;2023-06-10T09:06:08;11.33;;;6.90;;
64094;SDS011;50353;51.420;5.682;2023-06-10T09:08:34;15.32;;;7.40;;
64094;SDS011;50353;51.420;5.682;2023-06-10T09:11:00;13.70;;;7.27;;
64094;SDS011;50353;51.420;5.682;2023-06-10T09:13:25;13.20;;;6.73;;
64094;SDS011;50353;51.420;5.682;2023-06-10T09:15:50;16.63;;;7.43;;
64094;SDS011;50353;51.420;5.682;2023-06-10T09:18:16;8.70;;;5.70;;
64094;SDS011;50353;51.420;5.682;2023-06-10T09:20:42;14.10;;;6.80;;
64094;SDS011;50353;51.420;5.682;2023-06-10T09:23:08;11.38;;;6.93;;
64094;SDS011;50353;51.420;5.682;2023-06-10T09:25:37;13.35;;;6.32;;
64094;SDS011;50353;51.420;5.682;2023-06-10T09:28:03;15.10;;;6.70;;
64094;SDS011;50353;51.420;5.682;2023-06-10T09:30:37;11.55;;;6.60;;
64094;SDS011;50353;51.420;5.682;2023-06-10T09:33:09;12.10;;;6.33;;
64094;SDS011;50353;51.420;5.682;2023-06-10T09:35:37;13.80;;;6.68;;
64094;SDS011;50353;51.420;5.682;2023-06-10T09:38:10;11.13;;;6.38;;
64094;SDS011;50353;51.420;5.682;2023-06-10T09:40:47;11.83;;;6.83;;
64094;SDS011;50353;51.420;5.682;2023-06-10T09:43:14;12.80;;;6.50;;
64094;SDS011;50353;51.420;5.682;2023-06-10T09:45:39;11.47;;;6.50;;
64094;SDS011;50353;51.420;5.682;2023-06-10T09:48:05;12.57;;;7.00;;
64094;SDS011;50353;51.420;5.682;2023-06-10T09:50:33;12.50;;;6.20;;
64094;SDS011;50353;51.420;5.682;2023-06-10T09:52:59;12.25;;;6.63;;
64094;SDS011;50353;51.420;5.682;2023-06-10T09:55:25;11.98;;;6.70;;
64094;SDS011;50353;51.420;5.682;2023-06-10T09:57:51;14.10;;;6.40;;
64094;SDS011;50353;51.420;5.682;2023-06-10T10:00:18;12.00;;;6.60;;
64094;SDS011;50353;51.420;5.682;2023-06-10T10:02:45;8.95;;;6.20;;
64094;SDS011;50353;51.420;5.682;2023-06-10T10:05:13;10.27;;;5.97;;
64094;SDS011;50353;51.420;5.682;2023-06-10T10:07:40;14.43;;;6.05;;
64094;SDS011;50353;51.420;5.682;2023-06-10T10:10:05;12.93;;;6.33;;
64094;SDS011;50353;51.420;5.682;2023-06-10T10:12:32;11.82;;;6.13;;
64094;SDS011;50353;51.420;5.682;2023-06-10T10:15:00;10.88;;;5.97;;
64094;SDS011;50353;51.420;5.682;2023-06-10T10:17:27;12.77;;;6.25;;
64094;SDS011;50353;51.420;5.682;2023-06-10T10:19:56;12.70;;;6.53;;
64094;SDS011;50353;51.420;5.682;2023-06-10T10:22:29;13.98;;;6.00;;
64094;SDS011;50353;51.420;5.682;2023-06-10T10:24:57;11.85;;;6.43;;
64094;SDS011;50353;51.420;5.682;2023-06-10T10:27:26;10.07;;;5.43;;
64094;SDS011;50353;51.420;5.682;2023-06-10T10:29:53;12.20;;;6.53;;
64094;SDS011;50353;51.420;5.682;2023-06-10T10:32:28;12.77;;;6.63;;
64094;SDS011;50353;51.420;5.682;2023-06-10T10:35:03;10.25;;;6.20;;
64094;SDS011;50353;51.420;5.682;2023-06-10T10:37:42;11.07;;;6.43;;
64094;SDS011;50353;51.420;5.682;2023-06-10T10:40:08;11.82;;;6.28;;
64094;SDS011;50353;51.420;5.682;2023-06-10T10:42:35;9.35;;;5.82;;
64094;SDS011;50353;51.420;5.682;2023-06-10T10:45:01;16.50;;;6.32;;
64094;SDS011;50353;51.420;5.682;2023-06-10T10:47:27;13.60;;;6.25;;
64094;SDS011;50353;51.420;5.682;2023-06-10T10:49:55;12.05;;;5.90;;
64094;SDS011;50353;51.420;5.682;2023-06-10T10:52:24;12.23;;;5.95;;
64094;SDS011;50353;51.420;5.682;2023-06-10T10:54:50;8.77;;;5.45;;
64094;SDS011;50353;51.420;5.682;2023-06-10T10:57:19;13.38;;;5.75;;
64094;SDS011;50353;51.420;5.682;2023-06-10T11:04:58;12.82;;;5.80;;
64094;SDS011;50353;51.420;5.682;2023-06-10T11:07:25;13.98;;;6.20;;
64094;SDS011;50353;51.420;5.682;2023-06-10T11:09:57;14.03;;;6.17;;
64094;SDS011;50353;51.420;5.682;2023-06-10T11:12:23;13.82;;;5.38;;
64094;SDS011;50353;51.420;5.682;2023-06-10T11:14:53;13.90;;;5.85;;
64094;SDS011;50353;51.420;5.682;2023-06-10T11:17:20;8.85;;;5.90;;
64094;SDS011;50353;51.420;5.682;2023-06-10T11:19:46;10.52;;;5.93;;
64094;SDS011;50353;51.420;5.682;2023-06-10T11:22:16;10.52;;;5.95;;
64094;SDS011;50353;51.420;5.682;2023-06-10T11:24:47;11.63;;;5.43;;
64094;SDS011;50353;51.420;5.682;2023-06-10T11:27:17;12.93;;;6.20;;
64094;SDS011;50353;51.420;5.682;2023-06-10T11:32:42;10.20;;;5.80;;
64094;SDS011;50353;51.420;5.682;2023-06-10T11:35:08;11.32;;;5.40;;
64094;SDS011;50353;51.420;5.682;2023-06-10T11:37:33;9.37;;;5.80;;
64094;SDS011;50353;51.420;5.682;2023-06-10T11:39:58;10.63;;;5.90;;
64094;SDS011;50353;51.420;5.682;2023-06-10T11:42:24;8.80;;;5.90;;
64094;SDS011;50353;51.420;5.682;2023-06-10T11:44:50;10.93;;;6.07;;
64094;SDS011;50353;51.420;5.682;2023-06-10T11:47:16;7.53;;;5.45;;
64094;SDS011;50353;51.420;5.682;2023-06-10T11:49:42;8.55;;;5.65;;
64094;SDS011;50353;51.420;5.682;2023-06-10T11:52:08;10.38;;;5.70;;
64094;SDS011;50353;51.420;5.682;2023-06-10T11:54:33;9.30;;;5.43;;
64094;SDS011;50353;51.420;5.682;2023-06-10T11:56:58;8.43;;;5.37;;
64094;SDS011;50353;51.420;5.682;2023-06-10T11:59:28;8.63;;;5.50;;
64094;SDS011;50353;51.420;5.682;2023-06-10T12:01:54;10.15;;;5.93;;
64094;SDS011;50353;51.420;5.682;2023-06-10T12:04:20;14.65;;;5.82;;
64094;SDS011;50353;51.420;5.682;2023-06-10T12:06:49;9.48;;;5.75;;
64094;SDS011;50353;51.420;5.682;2023-06-10T12:09:19;11.60;;;5.53;;
64094;SDS011;50353;51.420;5.682;2023-06-10T12:11:45;9.80;;;5.32;;
64094;SDS011;50353;51.420;5.682;2023-06-10T12:14:13;9.07;;;5.95;;
64094;SDS011;50353;51.420;5.682;2023-06-10T12:16:38;11.17;;;5.80;;
64094;SDS011;50353;51.420;5.682;2023-06-10T12:21:31;12.07;;;5.88;;
64094;SDS011;50353;51.420;5.682;2023-06-10T12:23:59;7.28;;;5.53;;
64094;SDS011;50353;51.420;5.682;2023-06-10T12:26:35;12.00;;;5.55;;
64094;SDS011;50353;51.420;5.682;2023-06-10T12:29:12;16.92;;;6.00;;
64094;SDS011;50353;51.420;5.682;2023-06-10T12:31:52;12.75;;;5.60;;
64094;SDS011;50353;51.420;5.682;2023-06-10T12:34:19;12.23;;;5.57;;
64094;SDS011;50353;51.420;5.682;2023-06-10T12:36:48;8.93;;;5.60;;
64094;SDS011;50353;51.420;5.682;2023-06-10T12:39:14;12.57;;;5.70;;
64094;SDS011;50353;51.420;5.682;2023-06-10T12:41:39;8.13;;;4.87;;
64094;SDS011;50353;51.420;5.682;2023-06-10T12:46:37;14.23;;;5.50;;
64094;SDS011;50353;51.420;5.682;2023-06-10T12:49:02;9.55;;;5.20;;
64094;SDS011;50353;51.420;5.682;2023-06-10T12:51:27;9.73;;;5.50;;
64094;SDS011;50353;51.420;5.682;2023-06-10T12:53:53;11.90;;;5.37;;
64094;SDS011;50353;51.420;5.682;2023-06-10T12:56:18;8.60;;;5.47;;
64094;SDS011;50353;51.420;5.682;2023-06-10T12:58:43;7.87;;;5.37;;
64094;SDS011;50353;51.420;5.682;2023-06-10T13:01:08;11.33;;;5.50;;
64094;SDS011;50353;51.420;5.682;2023-06-10T13:03:34;9.73;;;5.18;;
64094;SDS011;50353;51.420;5.682;2023-06-10T13:05:59;10.13;;;4.97;;
64094;SDS011;50353;51.420;5.682;2023-06-10T13:08:25;12.17;;;5.20;;
64094;SDS011;50353;51.420;5.682;2023-06-10T13:10:50;12.20;;;5.33;;
64094;SDS011;50353;51.420;5.682;2023-06-10T13:13:15;8.67;;;5.27;;
64094;SDS011;50353;51.420;5.682;2023-06-10T13:15:41;9.35;;;5.38;;
64094;SDS011;50353;51.420;5.682;2023-06-10T13:18:06;19.63;;;13.75;;
64094;SDS011;50353;51.420;5.682;2023-06-10T13:20:32;8.93;;;5.93;;
64094;SDS011;50353;51.420;5.682;2023-06-10T13:22:57;6.30;;;4.70;;
64094;SDS011;50353;51.420;5.682;2023-06-10T13:25:22;7.43;;;5.23;;
64094;SDS011;50353;51.420;5.682;2023-06-10T13:27:48;10.20;;;5.27;;
64094;SDS011;50353;51.420;5.682;2023-06-10T13:30:13;10.32;;;5.68;;
64094;SDS011;50353;51.420;5.682;2023-06-10T13:32:39;8.03;;;5.40;;
64094;SDS011;50353;51.420;5.682;2023-06-10T13:35:04;11.80;;;5.80;;
64094;SDS011;50353;51.420;5.682;2023-06-10T13:37:30;11.70;;;5.75;;
64094;SDS011;50353;51.420;5.682;2023-06-10T13:39:55;7.17;;;5.53;;
64094;SDS011;50353;51.420;5.682;2023-06-10T13:42:20;14.05;;;5.30;;
64094;SDS011;50353;51.420;5.682;2023-06-10T13:44:46;10.63;;;5.40;;
64094;SDS011;50353;51.420;5.682;2023-06-10T13:47:13;8.93;;;5.38;;
64094;SDS011;50353;51.420;5.682;2023-06-10T13:49:39;9.05;;;5.13;;
64094;SDS011;50353;51.420;5.682;2023-06-10T13:52:05;9.65;;;5.35;;
64094;SDS011;50353;51.420;5.682;2023-06-10T13:56:56;11.07;;;5.70;;
64094;SDS011;50353;51.420;5.682;2023-06-10T13:59:21;10.83;;;5.53;;
64094;SDS011;50353;51.420;5.682;2023-06-10T14:01:47;6.93;;;5.03;;
64094;SDS011;50353;51.420;5.682;2023-06-10T14:04:12;9.43;;;5.53;;
64094;SDS011;50353;51.420;5.682;2023-06-10T14:06:37;11.18;;;5.78;;
64094;SDS011;50353;51.420;5.682;2023-06-10T14:09:03;8.03;;;5.60;;
64094;SDS011;50353;51.420;5.682;2023-06-10T14:11:28;9.73;;;5.53;;
64094;SDS011;50353;51.420;5.682;2023-06-10T14:13:53;9.20;;;5.83;;
64094;SDS011;50353;51.420;5.682;2023-06-10T14:16:21;9.32;;;5.65;;
64094;SDS011;50353;51.420;5.682;2023-06-10T14:18:47;9.55;;;5.72;;
64094;SDS011;50353;51.420;5.682;2023-06-10T14:21:12;6.63;;;5.03;;
64094;SDS011;50353;51.420;5.682;2023-06-10T14:23:37;9.60;;;5.67;;
64094;SDS011;50353;51.420;5.682;2023-06-10T14:26:02;9.13;;;5.60;;
64094;SDS011;50353;51.420;5.682;2023-06-10T14:28:28;9.07;;;5.88;;
64094;SDS011;50353;51.420;5.682;2023-06-10T14:30:54;8.35;;;5.30;;
64094;SDS011;50353;51.420;5.682;2023-06-10T14:33:19;8.40;;;5.60;;
64094;SDS011;50353;51.420;5.682;2023-06-10T14:35:44;9.57;;;5.57;;
64094;SDS011;50353;51.420;5.682;2023-06-10T14:38:10;7.23;;;5.23;;
64094;SDS011;50353;51.420;5.682;2023-06-10T14:40:35;8.60;;;5.80;;
64094;SDS011;50353;51.420;5.682;2023-06-10T14:43:00;8.13;;;5.80;;
64094;SDS011;50353;51.420;5.682;2023-06-10T14:45:26;9.57;;;6.32;;
64094;SDS011;50353;51.420;5.682;2023-06-10T14:47:51;12.45;;;6.25;;
64094;SDS011;50353;51.420;5.682;2023-06-10T14:50:17;14.83;;;5.77;;
64094;SDS011;50353;51.420;5.682;2023-06-10T14:52:42;9.97;;;5.80;;
64094;SDS011;50353;51.420;5.682;2023-06-10T14:55:07;10.27;;;5.80;;
64094;SDS011;50353;51.420;5.682;2023-06-10T14:57:33;7.72;;;5.53;;
64094;SDS011;50353;51.420;5.682;2023-06-10T14:59:58;9.33;;;5.90;;